Time;durP1;ratioP1;P1;durP2;ratioP2;P2;SDS_P1;SDS_P2;PMS_P1;PMS_P2;Temp;Humidity;BMP_temperature;BMP_pressure;BME280_temperature;BME280_humidity;BME280_pressure;Samples;Min_cycle;Max_cycle;Signal;HPM_P1;HPM_P2
2022/10/02 06:37:53;;;;;;;;;;;;;;;15.89;93.37;97612.97;4213908;27;10287;-69
2022/10/02 06:40:34;;;;;;;;;;;;;;;16.19;92.20;97603.47;4202706;28;5693;-68
2022/10/02 06:42:49;;;;;;;;;;;;;;;16.47;91.38;97603.19;4197309;28;5072;-69
2022/10/02 06:45:00;;;;;;;;;;;;;;;16.65;90.76;97601.66;4197809;28;5706;-69
2022/10/02 06:47:18;;;;;;;;;;;;;;;16.79;90.03;97603.31;4204546;28;5788;-69
2022/10/02 06:49:47;;;;;;;;;;;;;;;16.93;89.78;97610.22;4206855;28;5686;-69
2022/10/02 06:52:09;;;;;;;;;;;;;;;16.98;89.45;97593.53;4213547;28;5814;-69
2022/10/02 06:54:41;;;;;;;;;;;;;;;17.12;88.84;97603.94;4213175;28;5690;-69
2022/10/02 06:56:57;;;;;;;;;;;;;;;17.19;88.66;97606.56;4213624;28;5776;-69
2022/10/02 06:59:16;;;;;;;;;;;;;;;17.23;88.36;97613.13;4214227;28;6375;-69
2022/10/02 07:01:30;;;;;;;;;;;;;;;17.27;88.33;97616.19;4214301;28;5851;-70
2022/10/02 07:03:54;;;;;;;;;;;;;;;17.30;88.09;97624.56;4213737;28;5896;-70
2022/10/02 07:06:13;;;;;;;;;;;;;;;17.32;87.92;97619.81;4213828;28;5799;-69
2022/10/02 07:08:29;;;;;;;;;;;;;;;17.37;87.68;97628.03;4197570;28;5849;-70
2022/10/02 07:10:42;;;;;;;;;;;;;;;17.40;87.42;97621.44;4213908;28;6998;-70
2022/10/02 07:13:19;;;;;;;;;;;;;;;17.43;87.46;97629.81;4213566;28;5717;-70
2022/10/02 07:15:49;;;;;;;;;;;;;;;17.45;87.16;97619.75;4155115;28;5852;-70
2022/10/02 07:18:06;;;;;;;;;;;;;;;17.51;86.96;97622.59;4149868;28;5876;-70
2022/10/02 07:20:25;;;;;;;;;;;;;;;17.55;86.75;97629.13;4162265;28;6507;-70
2022/10/02 07:22:42;;;;;;;;;;;;;;;17.55;86.85;97629.13;4162111;28;5801;-70
2022/10/02 07:25:09;;;;;;;;;;;;;;;17.58;86.64;97624.19;4161607;28;5780;-70
2022/10/02 07:27:19;;;;;;;;;;;;;;;17.58;86.64;97618.03;4161679;28;5796;-71
2022/10/02 07:29:36;;;;;;;;;;;;;;;17.61;86.24;97621.06;4145750;28;5805;-71
2022/10/02 07:31:51;;;;;;;;;;;;;;;17.61;86.52;97617.59;4161860;28;5785;-71
2022/10/02 07:34:06;;;;;;;;;;;;;;;17.61;86.30;97614.91;4161894;28;5785;-70
2022/10/02 07:36:13;;;;;;;;;;;;;;;17.62;86.01;97609.34;4161572;28;5796;-70
2022/10/02 07:38:45;;;;;;;;;;;;;;;17.63;85.96;97627.00;4151123;28;5812;-70
2022/10/02 07:40:58;;;;;;;;;;;;;;;17.65;86.04;97632.16;4151217;28;5859;-70
2022/10/02 07:43:16;;;;;;;;;;;;;;;17.65;85.98;97629.47;4150886;28;5992;-70
2022/10/02 07:45:27;;;;;;;;;;;;;;;17.67;85.99;97627.44;4143229;28;5856;-70
2022/10/02 07:47:55;;;;;;;;;;;;;;;17.68;85.91;97619.19;4150652;28;5778;-70
2022/10/02 07:50:08;;;;;;;;;;;;;;;17.70;85.58;97606.44;4150687;28;5927;-70
2022/10/02 07:52:24;;;;;;;;;;;;;;;17.72;85.61;97617.72;4197588;28;5827;-70
2022/10/02 07:54:58;;;;;;;;;;;;;;;17.73;85.48;97631.91;4202147;28;5701;-70
2022/10/02 07:57:10;;;;;;;;;;;;;;;17.75;85.25;97616.47;4201660;28;5691;-71
2022/10/02 07:59:17;;;;;;;;;;;;;;;17.76;85.04;97620.78;4202030;28;5761;-70
2022/10/02 08:01:24;;;;;;;;;;;;;;;17.73;85.19;97615.88;4194707;28;5994;-70
2022/10/02 08:03:32;;;;;;;;;;;;;;;17.75;85.07;97616.47;4202457;28;6415;-70
2022/10/02 08:05:40;;;;;;;;;;;;;;;17.75;85.06;97616.47;4201933;28;6339;-71
2022/10/02 08:07:49;;;;;;;;;;;;;;;17.80;85.03;97631.88;4201792;28;5693;-71
2022/10/02 08:09:54;;;;;;;;;;;;;;;17.80;84.95;97638.03;4201992;28;5703;-72
2022/10/02 08:12:03;;;;;;;;;;;;;;;17.83;84.70;97639.44;4201616;28;5686;-70
2022/10/02 08:14:10;;;;;;;;;;;;;;;17.84;84.72;97643.75;4201919;28;5702;-71
2022/10/02 08:16:19;;;;;;;;;;;;;;;17.85;84.70;97638.19;4202013;28;5699;-72
2022/10/02 08:18:30;;;;;;;;;;;;;;;17.85;84.63;97648.88;4194293;28;7156;-70
2022/10/02 08:20:41;;;;;;;;;;;;;;;17.85;84.74;97643.53;4201550;28;5772;-69
2022/10/02 08:22:49;;;;;;;;;;;;;;;17.85;84.61;97632.84;4201415;28;5710;-70
2022/10/02 08:24:57;;;;;;;;;;;;;;;17.87;84.79;97630.75;4201134;28;5713;-71
2022/10/02 08:27:07;;;;;;;;;;;;;;;17.88;84.63;97635.06;4200905;28;5702;-71
2022/10/02 08:29:16;;;;;;;;;;;;;;;17.88;84.52;97639.59;4201414;28;5721;-71
2022/10/02 08:31:22;;;;;;;;;;;;;;;17.87;84.41;97643.31;4201523;28;5804;-70
2022/10/02 08:33:25;;;;;;;;;;;;;;;17.87;84.40;97649.47;4201391;28;5773;-70
2022/10/02 08:35:40;;;;;;;;;;;;;;;17.86;84.35;97637.16;4200915;28;5868;-70
2022/10/02 08:38:03;;;;;;;;;;;;;;;17.89;84.33;97628.69;4201272;28;5653;-70
2022/10/02 08:40:52;;;;;;;;;;;;;;;17.92;84.34;97627.44;4201324;28;5698;-70
2022/10/02 08:43:37;;;;;;;;;;;;;;;17.93;84.18;97616.53;4188022;28;5844;-70
2022/10/02 08:46:22;;;;;;;;;;;;;;;17.94;84.17;97612.81;4156968;28;5698;-71
2022/10/02 08:48:48;;;;;;;;;;;;;;;17.95;83.77;97610.94;4136344;28;5784;-70
2022/10/02 08:51:29;;;;;;;;;;;;;;;17.97;83.87;97615.03;4143392;28;5943;-70
2022/10/02 08:54:16;;;;;;;;;;;;;;;17.99;83.76;97617.50;4117713;28;5792;-69
2022/10/02 08:56:38;;;;;;;;;;;;;;;18.01;83.78;97618.94;4138100;28;5913;-70
2022/10/02 08:59:04;;;;;;;;;;;;;;;18.03;83.72;97618.69;4134345;28;5904;-71
2022/10/02 09:01:20;;;;;;;;;;;;;;;18.06;83.71;97625.47;4144958;28;5776;-70
2022/10/02 09:04:11;;;;;;;;;;;;;;;18.07;83.37;97619.06;4142703;28;5918;-71
2022/10/02 09:06:52;;;;;;;;;;;;;;;18.07;83.20;97619.88;4124841;28;5900;-71
2022/10/02 09:09:34;;;;;;;;;;;;;;;18.12;83.24;97613.88;4143669;28;5792;-71
2022/10/02 09:12:20;;;;;;;;;;;;;;;18.14;83.00;97607.28;4148087;28;6019;-70
2022/10/02 09:14:47;;;;;;;;;;;;;;;18.15;82.90;97618.78;4148639;28;6490;-70
2022/10/02 09:17:09;;;;;;;;;;;;;;;18.15;82.97;97616.13;4149351;28;5797;-70
2022/10/02 09:19:39;;;;;;;;;;;;;;;18.16;83.00;97604.38;4140596;28;5921;-69
2022/10/02 09:21:53;;;;;;;;;;;;;;;18.21;82.88;97617.91;4145034;28;5796;-70
2022/10/02 09:24:34;;;;;;;;;;;;;;;18.24;82.83;97620.16;4130477;28;5818;-70
2022/10/02 09:26:57;;;;;;;;;;;;;;;18.25;82.83;97619.94;4188911;28;5792;-70
2022/10/02 09:29:20;;;;;;;;;;;;;;;18.26;82.76;97612.72;4200310;28;5779;-70
2022/10/02 09:31:42;;;;;;;;;;;;;;;18.30;82.45;97619.25;4195854;28;5840;-70
2022/10/02 09:34:14;;;;;;;;;;;;;;;18.32;82.47;97626.00;4193961;28;5857;-70
2022/10/02 09:37:01;;;;;;;;;;;;;;;18.38;82.43;97620.81;4187443;28;6396;-70
2022/10/02 09:39:54;;;;;;;;;;;;;;;18.42;82.44;97625.50;4188504;28;5813;-70
2022/10/02 09:42:35;;;;;;;;;;;;;;;18.45;82.25;97618.88;4149474;28;5926;-70
2022/10/02 09:45:17;;;;;;;;;;;;;;;18.48;82.26;97613.09;4149679;28;6527;-69
2022/10/02 09:48:00;;;;;;;;;;;;;;;18.53;82.03;97623.94;4154429;28;5835;-70
2022/10/02 09:50:35;;;;;;;;;;;;;;;18.57;82.18;97623.28;4151374;28;5934;-69
2022/10/02 09:53:10;;;;;;;;;;;;;;;18.61;81.72;97615.63;4148817;28;5992;-69
2022/10/02 09:55:35;;;;;;;;;;;;;;;18.65;81.74;97610.66;4157793;28;5739;-70
2022/10/02 09:58:13;;;;;;;;;;;;;;;18.69;81.51;97610.00;4152946;28;5715;-69
2022/10/02 10:00:25;;;;;;;;;;;;;;;18.73;81.88;97605.00;4126754;28;5133;-71
2022/10/02 10:02:48;;;;;;;;;;;;;;;18.79;81.44;97609.44;4151478;28;5742;-71
2022/10/02 10:05:09;;;;;;;;;;;;;;;18.84;81.29;97609.59;4155577;28;5744;-72
2022/10/02 10:07:58;;;;;;;;;;;;;;;18.88;81.30;97608.09;4150261;28;5736;-72
2022/10/02 10:10:32;;;;;;;;;;;;;;;18.90;81.44;97600.63;4151527;28;5751;-70
2022/10/02 10:13:11;;;;;;;;;;;;;;;18.87;81.57;97601.09;4154226;28;5742;-70
2022/10/02 10:15:39;;;;;;;;;;;;;;;18.81;81.34;97602.00;4160486;28;6554;-70
2022/10/02 10:18:11;;;;;;;;;;;;;;;18.79;81.33;97604.06;4154717;28;5907;-70
2022/10/02 10:21:06;;;;;;;;;;;;;;;18.84;81.23;97598.88;4190225;28;5855;-70
2022/10/02 10:23:37;;;;;;;;;;;;;;;18.87;81.33;97585.84;4188565;28;6193;-70
2022/10/02 10:26:15;;;;;;;;;;;;;;;18.89;81.06;97590.97;4191646;28;6531;-70
2022/10/02 10:29:02;;;;;;;;;;;;;;;18.86;81.21;97588.75;4187698;28;5833;-70
2022/10/02 10:31:53;;;;;;;;;;;;;;;18.84;81.23;97585.47;4185139;28;5714;-71
2022/10/02 10:34:28;;;;;;;;;;;;;;;18.82;81.10;97588.41;4187883;28;5974;-69
2022/10/02 10:39:38;;;;;;;;;;;;;;;18.90;80.80;97588.06;4193978;28;5879;-69
2022/10/02 10:42:19;;;;;;;;;;;;;;;18.93;80.68;97581.44;4193250;28;5797;-70
2022/10/02 10:44:59;;;;;;;;;;;;;;;18.96;80.87;97589.03;4191296;28;5802;-74
2022/10/02 10:47:42;;;;;;;;;;;;;;;18.97;80.76;97585.31;4190253;28;5821;-74
2022/10/02 10:50:19;;;;;;;;;;;;;;;18.98;80.88;97575.41;4187216;28;5698;-73
2022/10/02 10:52:41;;;;;;;;;;;;;;;19.01;80.74;97578.44;4194376;28;5896;-73
2022/10/02 10:54:54;;;;;;;;;;;;;;;19.05;80.77;97576.13;4191856;28;5834;-69
2022/10/02 10:57:03;;;;;;;;;;;;;;;19.01;80.82;97567.72;4194061;28;5796;-77
2022/10/02 10:59:42;;;;;;;;;;;;;;;19.05;80.75;97582.31;4191014;28;6404;-70
2022/10/02 11:02:05;;;;;;;;;;;;;;;19.10;80.26;97585.13;4155841;28;5943;-72
2022/10/02 11:04:38;;;;;;;;;;;;;;;19.12;80.37;97577.66;4189259;28;5825;-66
2022/10/02 11:07:01;;;;;;;;;;;;;;;19.13;80.34;97579.28;4190351;28;5864;-81
2022/10/02 11:09:32;;;;;;;;;;;;;;;19.19;80.16;97577.56;4190446;28;6410;-77
2022/10/02 11:11:43;;;;;;;;;;;;;;;19.23;80.11;97583.28;4191061;28;5220;-80
2022/10/02 11:14:04;;;;;;;;;;;;;;;19.25;79.79;97578.50;4197854;28;5154;-81
2022/10/02 11:16:43;;;;;;;;;;;;;;;19.27;80.14;97589.84;4199866;28;5815;-83
2022/10/02 11:19:09;;;;;;;;;;;;;;;19.26;79.76;97582.84;4191389;28;5778;-76
2022/10/02 11:21:36;;;;;;;;;;;;;;;19.26;79.81;97589.03;4200545;28;5701;-83
2022/10/02 11:24:07;;;;;;;;;;;;;;;19.27;79.64;97595.19;4193684;28;5936;-81
2022/10/02 11:26:31;;;;;;;;;;;;;;;19.28;79.75;97591.47;4193423;28;5806;-76
2022/10/02 11:28:55;;;;;;;;;;;;;;;19.23;79.30;97583.28;4198960;28;5865;-76
2022/10/02 11:31:15;;;;;;;;;;;;;;;19.27;79.69;97584.47;4193063;28;5734;-76
2022/10/02 11:33:33;;;;;;;;;;;;;;;19.27;79.42;97573.75;4194153;28;5804;-79
2022/10/02 11:36:15;;;;;;;;;;;;;;;19.30;79.14;97578.66;4198374;28;6485;-81
2022/10/02 11:38:42;;;;;;;;;;;;;;;19.31;79.03;97585.66;4162216;28;5945;-68
2022/10/02 11:40:58;;;;;;;;;;;;;;;19.33;79.33;97572.81;4161904;28;5773;-71
2022/10/02 11:43:26;;;;;;;;;;;;;;;19.36;78.88;97572.34;4159394;28;5784;-70
2022/10/02 11:45:59;;;;;;;;;;;;;;;19.38;78.98;97576.47;4167219;28;5769;-70
2022/10/02 11:48:40;;;;;;;;;;;;;;;19.37;78.81;97560.63;4165214;28;5931;-70
2022/10/02 11:51:00;;;;;;;;;;;;;;;19.39;79.00;97562.00;4159196;28;5828;-69
2022/10/02 11:53:30;;;;;;;;;;;;;;;19.41;78.91;97557.22;4164301;28;5844;-69
2022/10/02 11:55:49;;;;;;;;;;;;;;;19.39;78.82;97558.50;4162969;28;5892;-70
2022/10/02 11:58:04;;;;;;;;;;;;;;;19.42;78.78;97552.69;4165493;28;5887;-70
2022/10/02 12:00:33;;;;;;;;;;;;;;;19.43;78.62;97552.44;4164892;28;5777;-70
2022/10/02 12:02:41;;;;;;;;;;;;;;;19.44;78.66;97543.34;4165541;28;5439;-70
2022/10/02 12:05:03;;;;;;;;;;;;;;;19.47;78.56;97540.19;4165986;28;5895;-69
2022/10/02 12:07:19;;;;;;;;;;;;;;;19.47;78.35;97534.03;4165516;28;5274;-69
2022/10/02 12:09:35;;;;;;;;;;;;;;;19.49;78.27;97534.63;4165148;28;5759;-69
2022/10/02 12:11:47;;;;;;;;;;;;;;;19.50;78.16;97528.22;4165919;28;5854;-69
2022/10/02 12:14:03;;;;;;;;;;;;;;;19.54;78.20;97520.50;4174523;28;5694;-69
2022/10/02 12:16:16;;;;;;;;;;;;;;;19.58;77.81;97522.50;4197790;28;5908;-69
2022/10/02 12:18:41;;;;;;;;;;;;;;;19.60;77.58;97525.00;4197514;28;5697;-68
2022/10/02 12:28:26;;;;;;;;;;;;;;;19.67;77.53;97506.91;4196762;28;5814;-71
2022/10/02 12:30:39;;;;;;;;;;;;;;;19.68;77.58;97501.28;4196416;28;5206;-71
2022/10/02 12:33:26;;;;;;;;;;;;;;;19.70;77.39;97509.09;4198552;28;5862;-71
2022/10/02 12:35:50;;;;;;;;;;;;;;;19.78;77.16;97503.41;4189261;28;5709;-71
2022/10/02 12:38:05;;;;;;;;;;;;;;;19.86;76.89;97492.31;4185969;28;5719;-71
2022/10/02 12:40:20;;;;;;;;;;;;;;;19.87;77.08;97488.56;4189944;28;5699;-71
2022/10/02 12:42:59;;;;;;;;;;;;;;;19.92;76.97;97498.59;4194906;28;5781;-71
2022/10/02 12:45:26;;;;;;;;;;;;;;;19.92;76.86;97501.28;4154185;28;5995;-71
2022/10/02 12:47:49;;;;;;;;;;;;;;;19.92;76.78;97496.72;4153104;28;5789;-71
2022/10/02 12:50:10;;;;;;;;;;;;;;;19.95;76.84;97498.97;4159018;28;5787;-71
2022/10/02 12:52:39;;;;;;;;;;;;;;;19.99;76.33;97492.06;4159295;28;5835;-72
2022/10/02 12:55:12;;;;;;;;;;;;;;;20.00;76.62;97490.19;4155138;28;5792;-71
2022/10/02 12:57:51;;;;;;;;;;;;;;;20.00;76.40;97493.69;4161550;28;5760;-71
2022/10/02 13:00:03;;;;;;;;;;;;;;;20.02;76.37;97488.09;4159315;28;6050;-72
2022/10/02 13:02:41;;;;;;;;;;;;;;;20.01;76.20;97489.13;4162066;28;5983;-72
2022/10/02 13:05:46;;;;;;;;;;;;;;;20.04;76.00;97491.34;4110703;28;6018;-72
2022/10/02 13:08:18;;;;;;;;;;;;;;;20.03;76.34;97487.03;4108905;28;5847;-72
2022/10/02 13:10:23;;;;;;;;;;;;;;;20.03;76.50;97489.72;4113944;28;5919;-72
2022/10/02 13:12:52;;;;;;;;;;;;;;;20.06;75.97;97491.94;4112524;28;5844;-72
2022/10/02 13:15:16;;;;;;;;;;;;;;;20.09;76.00;97490.66;4112209;28;5944;-72
2022/10/02 13:17:31;;;;;;;;;;;;;;;20.10;75.78;97497.66;4109876;28;6031;-72
2022/10/02 13:19:46;;;;;;;;;;;;;;;20.11;76.22;97494.72;4110363;28;5988;-72
2022/10/02 13:21:58;;;;;;;;;;;;;;;20.13;76.12;97499.84;4126412;28;5860;-72
2022/10/02 13:24:16;;;;;;;;;;;;;;;20.19;75.67;97497.03;4142421;28;5887;-72
2022/10/02 13:26:33;;;;;;;;;;;;;;;20.22;75.88;97493.88;4144527;28;5948;-74
2022/10/02 13:28:49;;;;;;;;;;;;;;;20.25;75.48;97490.72;4145907;28;5868;-78
2022/10/02 13:31:03;;;;;;;;;;;;;;;20.27;75.34;97488.63;4145825;28;5920;-76
2022/10/02 13:33:19;;;;;;;;;;;;;;;20.29;75.07;97497.25;4145615;28;6408;-75
2022/10/02 13:36:03;;;;;;;;;;;;;;;20.30;75.38;97498.88;4146549;28;5878;-74
2022/10/02 13:38:22;;;;;;;;;;;;;;;20.30;75.15;97493.53;4136265;28;5831;-70
2022/10/02 13:40:29;;;;;;;;;;;;;;;20.32;74.97;97501.34;4146120;28;5861;-69
2022/10/02 13:42:46;;;;;;;;;;;;;;;20.34;74.94;97496.53;4195050;28;5693;-71
2022/10/02 13:44:59;;;;;;;;;;;;;;;20.36;74.92;97497.91;4195818;28;5710;-72
2022/10/02 13:47:27;;;;;;;;;;;;;;;20.39;74.50;97507.38;4197934;28;5856;-69
2022/10/02 13:49:45;;;;;;;;;;;;;;;20.44;74.16;97504.81;4192768;28;5689;-72
2022/10/02 13:51:56;;;;;;;;;;;;;;;20.48;74.19;97505.16;4191573;28;5856;-69
2022/10/02 13:54:22;;;;;;;;;;;;;;;20.47;74.37;97500.84;4197081;28;5839;-70
2022/10/02 13:56:42;;;;;;;;;;;;;;;20.47;74.14;97493.59;4194594;28;5827;-69
2022/10/02 13:59:13;;;;;;;;;;;;;;;20.47;73.94;97498.16;4196332;28;5698;-77
2022/10/02 14:01:28;;;;;;;;;;;;;;;20.45;73.97;97490.34;4195780;28;5839;-74
2022/10/02 14:03:48;;;;;;;;;;;;;;;20.48;73.40;97491.72;4196796;28;5867;-73
2022/10/02 14:06:00;;;;;;;;;;;;;;;20.48;73.43;97491.72;4197999;28;5705;-72
2022/10/02 14:08:43;;;;;;;;;;;;;;;20.48;73.30;97486.34;4196459;28;5788;-73
2022/10/02 14:11:00;;;;;;;;;;;;;;;20.47;72.71;97488.22;4196833;28;5848;-71
2022/10/02 14:13:19;;;;;;;;;;;;;;;20.45;72.60;97489.53;4197019;28;5847;-73
2022/10/02 14:15:37;;;;;;;;;;;;;;;20.45;72.79;97489.53;4196618;28;5800;-74
2022/10/02 14:17:52;;;;;;;;;;;;;;;20.45;72.46;97494.91;4197143;28;5694;-74
2022/10/02 14:20:14;;;;;;;;;;;;;;;20.44;72.06;97487.91;4196447;28;5760;-74
2022/10/02 14:22:33;;;;;;;;;;;;;;;20.46;71.71;97491.16;4196399;28;5792;-74
2022/10/02 14:25:03;;;;;;;;;;;;;;;20.46;71.89;97480.41;4197318;28;5844;-74
2022/10/02 14:27:18;;;;;;;;;;;;;;;20.47;71.23;97480.16;4197497;28;5733;-74
2022/10/02 14:29:36;;;;;;;;;;;;;;;20.48;71.01;97479.09;4198385;28;5338;-75
2022/10/02 14:32:04;;;;;;;;;;;;;;;20.50;70.86;97481.56;4197920;28;7735;-72
2022/10/02 14:34:25;;;;;;;;;;;;;;;20.53;70.12;97478.41;4197536;28;6500;-71
2022/10/02 14:36:37;;;;;;;;;;;;;;;20.53;70.29;97481.91;4196583;28;5836;-72
2022/10/02 14:38:59;;;;;;;;;;;;;;;20.54;69.67;97486.22;4196696;28;5729;-72
2022/10/02 14:41:17;;;;;;;;;;;;;;;20.55;69.45;97468.22;4197040;28;5856;-72
2022/10/02 14:43:38;;;;;;;;;;;;;;;20.52;69.10;97469.53;4194489;28;5694;-72
2022/10/02 14:46:07;;;;;;;;;;;;;;;20.52;68.78;97469.53;4197387;28;6387;-72
2022/10/02 14:48:25;;;;;;;;;;;;;;;20.53;68.79;97464.97;4199928;28;5717;-72
2022/10/02 14:50:43;;;;;;;;;;;;;;;20.52;68.59;97471.41;4197708;28;5783;-71
2022/10/02 14:53:03;;;;;;;;;;;;;;;20.50;67.97;97471.66;4197593;28;5776;-73
2022/10/02 14:55:27;;;;;;;;;;;;;;;20.52;68.08;97468.72;4200279;28;5752;-73
2022/10/02 14:57:50;;;;;;;;;;;;;;;20.50;67.90;97470.81;4200498;28;5678;-73
2022/10/02 15:00:23;;;;;;;;;;;;;;;20.52;67.29;97477.59;4199221;28;5748;-73
2022/10/02 15:02:49;;;;;;;;;;;;;;;20.51;67.38;97483.22;4137191;28;5793;-74
2022/10/02 15:05:05;;;;;;;;;;;;;;;20.52;66.82;97479.47;4136473;28;6508;-73
2022/10/02 15:07:12;;;;;;;;;;;;;;;20.52;66.80;97476.78;4139586;28;6702;-70
2022/10/02 15:09:20;;;;;;;;;;;;;;;20.54;66.43;97480.03;4137679;28;5918;-70
2022/10/02 15:11:46;;;;;;;;;;;;;;;20.56;66.19;97478.72;4142546;28;5946;-71
2022/10/02 15:13:55;;;;;;;;;;;;;;;20.59;66.39;97490.88;4143217;28;5890;-70
2022/10/02 15:18:39;;;;;;;;;;;;;;;20.55;65.67;97484.34;4142447;28;5813;-70
2022/10/02 15:20:58;;;;;;;;;;;;;;;20.53;65.76;97483.78;4143839;28;5781;-70
2022/10/02 15:23:03;;;;;;;;;;;;;;;20.50;65.28;97487.78;4142846;28;5853;-70
2022/10/02 15:25:16;;;;;;;;;;;;;;;20.55;64.68;97484.34;4131455;28;5799;-70
2022/10/02 15:27:23;;;;;;;;;;;;;;;20.59;64.67;97488.19;4141449;28;5786;-70
2022/10/02 15:29:39;;;;;;;;;;;;;;;20.60;64.77;97492.50;4139094;28;5941;-70
2022/10/02 15:32:01;;;;;;;;;;;;;;;20.62;64.36;97485.03;4138914;28;5783;-70
2022/10/02 15:34:18;;;;;;;;;;;;;;;20.63;63.85;97490.16;4135837;28;5819;-70
2022/10/02 15:36:49;;;;;;;;;;;;;;;20.63;63.92;97478.59;4143083;28;5838;-70
2022/10/02 15:39:18;;;;;;;;;;;;;;;20.66;64.08;97475.44;4176829;28;5824;-71
2022/10/02 15:41:47;;;;;;;;;;;;;;;20.67;63.55;97481.63;4195535;28;5784;-70
2022/10/02 15:44:02;;;;;;;;;;;;;;;20.68;63.46;97477.88;4197128;28;5809;-72
2022/10/02 15:46:14;;;;;;;;;;;;;;;20.70;63.51;97487.31;4191368;28;5788;-71
2022/10/02 15:49:04;;;;;;;;;;;;;;;20.70;63.11;97481.94;4195173;28;5844;-71
2022/10/02 15:51:20;;;;;;;;;;;;;;;20.70;62.78;97479.25;4139793;28;5873;-71
2022/10/02 15:53:36;;;;;;;;;;;;;;;20.72;62.71;97479.00;4142921;28;5827;-71
2022/10/02 15:55:43;;;;;;;;;;;;;;;20.73;62.71;97481.47;4143141;28;6035;-71
2022/10/02 15:58:07;;;;;;;;;;;;;;;20.72;62.35;97487.88;4143807;28;6426;-71
2022/10/02 16:00:14;;;;;;;;;;;;;;;20.70;61.88;97487.31;4145169;28;5920;-71
2022/10/02 16:02:31;;;;;;;;;;;;;;;20.69;62.02;97483.00;4142502;28;5816;-71
2022/10/02 16:04:46;;;;;;;;;;;;;;;20.68;61.87;97486.75;4139532;28;6106;-72
2022/10/02 16:07:28;;;;;;;;;;;;;;;20.69;61.54;97496.44;4145525;28;5189;-72
2022/10/02 16:09:49;;;;;;;;;;;;;;;20.68;61.32;97494.00;4140780;28;6629;-70
2022/10/02 16:12:10;;;;;;;;;;;;;;;20.66;61.37;97491.53;4139038;28;6612;-71
2022/10/02 16:14:18;;;;;;;;;;;;;;;20.62;61.11;97504.66;4144590;28;5846;-71
2022/10/02 16:16:55;;;;;;;;;;;;;;;20.59;61.27;97501.59;4136326;28;6870;-72
2022/10/02 16:19:07;;;;;;;;;;;;;;;20.57;60.99;97501.03;4137267;28;5823;-71
2022/10/02 16:21:26;;;;;;;;;;;;;;;20.54;61.28;97504.22;4138648;28;5908;-71
2022/10/02 16:23:56;;;;;;;;;;;;;;;20.53;61.04;97507.94;4139450;28;5915;-72
2022/10/02 16:26:14;;;;;;;;;;;;;;;20.50;60.92;97508.41;4109682;28;5807;-71
2022/10/02 16:28:32;;;;;;;;;;;;;;;20.47;60.60;97506.22;4188047;28;5918;-71
2022/10/02 16:30:58;;;;;;;;;;;;;;;20.45;60.54;97500.25;4189516;28;5808;-72
2022/10/02 16:33:19;;;;;;;;;;;;;;;20.43;60.47;97503.19;4197123;28;5891;-70
2022/10/02 16:36:02;;;;;;;;;;;;;;;20.42;60.21;97506.94;4190575;28;5797;-71
2022/10/02 16:38:16;;;;;;;;;;;;;;;20.41;60.29;97507.16;4195643;28;5821;-71
2022/10/02 16:40:27;;;;;;;;;;;;;;;20.40;60.59;97514.38;4199288;28;8459;-71
2022/10/02 16:42:44;;;;;;;;;;;;;;;20.38;60.39;97511.09;4199390;28;5813;-71
2022/10/02 16:45:01;;;;;;;;;;;;;;;20.36;59.91;97513.22;4197068;28;5773;-70
2022/10/02 16:47:13;;;;;;;;;;;;;;;20.33;60.30;97516.38;4195727;28;5832;-72
2022/10/02 16:49:24;;;;;;;;;;;;;;;20.31;60.38;97516.63;4197374;28;5791;-72
2022/10/02 16:51:43;;;;;;;;;;;;;;;20.29;60.15;97508.00;4189621;28;5715;-71
2022/10/02 16:53:53;;;;;;;;;;;;;;;20.29;60.42;97518.72;4194489;28;5813;-71
2022/10/02 16:56:05;;;;;;;;;;;;;;;20.29;60.35;97518.72;4197399;28;5867;-71
2022/10/02 16:58:18;;;;;;;;;;;;;;;20.26;59.96;97524.56;4196119;28;5739;-71
2022/10/02 17:00:25;;;;;;;;;;;;;;;20.24;60.35;97540.09;4197248;28;5835;-71
2022/10/02 17:02:42;;;;;;;;;;;;;;;20.22;60.29;97541.38;4192485;28;5850;-72
2022/10/02 17:04:58;;;;;;;;;;;;;;;20.19;60.34;97542.69;4197539;28;5855;-71
2022/10/02 17:07:05;;;;;;;;;;;;;;;20.19;60.22;97536.50;4193102;28;5853;-71
2022/10/02 17:09:17;;;;;;;;;;;;;;;20.18;60.59;97545.59;4198465;28;5828;-71
2022/10/02 17:11:25;;;;;;;;;;;;;;;20.16;60.38;97545.84;4196963;28;5760;-71
2022/10/02 17:13:34;;;;;;;;;;;;;;;20.16;60.55;97551.22;4198538;28;5768;-72
2022/10/02 17:15:45;;;;;;;;;;;;;;;20.13;60.46;97546.28;4195379;28;5945;-71
2022/10/02 17:18:11;;;;;;;;;;;;;;;20.10;60.23;97546.78;4195834;28;6769;-71
2022/10/02 17:20:19;;;;;;;;;;;;;;;20.11;60.39;97552.97;4198252;28;5868;-71
2022/10/02 17:22:33;;;;;;;;;;;;;;;20.09;60.23;97552.38;4195466;28;5705;-70
2022/10/02 17:24:42;;;;;;;;;;;;;;;20.08;60.66;97562.31;4191745;28;5693;-70
2022/10/02 17:26:51;;;;;;;;;;;;;;;20.05;60.67;97565.47;4194043;28;5707;-71
2022/10/02 17:29:01;;;;;;;;;;;;;;;20.03;60.44;97567.53;4190483;28;5842;-71
2022/10/02 17:31:35;;;;;;;;;;;;;;;20.03;60.80;97572.91;4199761;28;5697;-71
2022/10/02 17:33:46;;;;;;;;;;;;;;;20.00;60.42;97562.66;4151484;28;6583;-71
2022/10/02 17:35:56;;;;;;;;;;;;;;;19.99;60.83;97580.63;4157094;28;5787;-69
2022/10/02 17:38:24;;;;;;;;;;;;;;;19.97;61.01;97577.38;4160708;28;5776;-71
2022/10/02 17:40:35;;;;;;;;;;;;;;;19.98;61.05;97578.19;4143149;28;5844;-71
2022/10/02 17:42:47;;;;;;;;;;;;;;;19.96;61.13;97572.22;4152788;28;5760;-72
2022/10/02 17:44:59;;;;;;;;;;;;;;;19.94;60.69;97574.34;4154528;28;5863;-71
2022/10/02 17:47:34;;;;;;;;;;;;;;;19.92;60.94;97579.91;4150826;28;5801;-80
2022/10/02 17:49:50;;;;;;;;;;;;;;;19.92;61.28;97587.97;4145759;28;5775;-73
2022/10/02 17:56:26;;;;;;;;;;;;;;;19.91;61.30;97585.50;4154360;28;6313;-78
2022/10/02 17:57:16;;;;;;;;;;;;;;;19.88;61.43;97581.44;4152999;28;5755;-77
2022/10/02 18:00:02;;;;;;;;;;;;;;;19.88;61.06;97588.66;4158363;28;6044;-80
2022/10/02 18:02:20;;;;;;;;;;;;;;;19.85;61.40;97587.28;4141201;28;7785;-75
2022/10/02 18:04:32;;;;;;;;;;;;;;;19.85;61.34;97587.28;4158794;28;6462;-77
2022/10/02 18:06:46;;;;;;;;;;;;;;;19.84;61.50;97598.25;4148875;28;5764;-70
2022/10/02 18:09:21;;;;;;;;;;;;;;;19.82;61.29;97595.81;4151181;28;5814;-72
2022/10/02 18:11:41;;;;;;;;;;;;;;;19.82;61.33;97592.28;4186843;28;5715;-71
2022/10/02 18:13:57;;;;;;;;;;;;;;;19.82;61.58;97605.69;4184205;28;5718;-71
2022/10/02 18:16:21;;;;;;;;;;;;;;;19.81;61.56;97604.06;4193520;28;5689;-70
2022/10/02 18:18:32;;;;;;;;;;;;;;;19.81;61.63;97599.50;4188746;28;5714;-70
2022/10/02 18:20:43;;;;;;;;;;;;;;;19.81;61.74;97599.50;4194962;28;5083;-84
2022/10/02 18:23:07;;;;;;;;;;;;;;;19.81;61.48;97593.31;4184786;28;5933;-82
2022/10/02 18:25:23;;;;;;;;;;;;;;;19.82;61.54;97594.97;4184350;28;5829;-82
2022/10/02 18:28:03;;;;;;;;;;;;;;;19.78;61.85;97586.56;4187545;28;5803;-76
2022/10/02 18:30:14;;;;;;;;;;;;;;;19.80;61.65;97591.69;4129734;28;5894;-87
2022/10/02 18:32:43;;;;;;;;;;;;;;;19.78;61.53;97592.75;4121853;28;6990;-86
2022/10/02 18:35:13;;;;;;;;;;;;;;;19.77;61.71;97595.66;4126262;28;5958;-83
2022/10/02 18:37:38;;;;;;;;;;;;;;;19.76;61.37;97594.03;4129809;28;5099;-76
2022/10/02 18:39:53;;;;;;;;;;;;;;;19.74;61.51;97596.94;4125700;28;5927;-81
2022/10/02 18:42:28;;;;;;;;;;;;;;;19.72;61.88;97601.75;4123139;28;5974;-77
2022/10/02 18:44:48;;;;;;;;;;;;;;;19.72;61.88;97596.38;4122581;28;5959;-82
2022/10/02 18:47:03;;;;;;;;;;;;;;;19.71;61.71;97597.44;4119353;28;5824;-78
2022/10/02 18:49:28;;;;;;;;;;;;;;;19.67;61.58;97590.88;4125484;28;5911;-80
2022/10/02 18:51:52;;;;;;;;;;;;;;;19.68;61.57;97597.06;4123934;28;6675;-84
2022/10/02 18:54:09;;;;;;;;;;;;;;;19.67;61.87;97592.72;4121933;28;5811;-76
2022/10/02 18:56:38;;;;;;;;;;;;;;;19.65;61.62;97601.00;4126445;28;5099;-79
2022/10/02 18:58:57;;;;;;;;;;;;;;;19.64;61.54;97604.75;4125804;28;5841;-79
2022/10/02 19:01:09;;;;;;;;;;;;;;;19.64;61.50;97607.44;4125635;28;7792;-80
2022/10/02 19:03:24;;;;;;;;;;;;;;;19.64;61.51;97610.13;4121758;28;5941;-79
2022/10/02 19:05:31;;;;;;;;;;;;;;;19.63;61.60;97611.16;4197206;28;5901;-79
2022/10/02 19:07:39;;;;;;;;;;;;;;;19.63;61.68;97605.81;4194017;28;5831;-73
2022/10/02 19:09:43;;;;;;;;;;;;;;;19.62;61.79;97601.50;4196224;28;5824;-76
2022/10/02 19:11:55;;;;;;;;;;;;;;;19.61;61.60;97604.41;4192868;28;5686;-74
2022/10/02 19:14:02;;;;;;;;;;;;;;;19.59;61.71;97601.94;4196562;28;5697;-75
2022/10/02 19:16:18;;;;;;;;;;;;;;;19.60;61.73;97608.13;4198991;28;5697;-74
2022/10/02 19:18:23;;;;;;;;;;;;;;;19.60;61.79;97608.13;4199389;28;5883;-75
2022/10/02 19:20:35;;;;;;;;;;;;;;;19.59;61.98;97604.59;4198216;28;5887;-75